sensor_id;sensor_type;location;lat;lon;timestamp;pressure;altitude;pressure_sealevel;temperature
65290;BMP180;51893;59.754;10.110;2023-07-09T00:02:25;102329.20;;;17.40
65290;BMP180;51893;59.754;10.110;2023-07-09T00:04:53;102327.80;;;17.34
65290;BMP180;51893;59.754;10.110;2023-07-09T00:07:28;102327.60;;;17.34
65290;BMP180;51893;59.754;10.110;2023-07-09T00:09:57;102327.80;;;17.30
65290;BMP180;51893;59.754;10.110;2023-07-09T00:12:26;102328.40;;;17.30
65290;BMP180;51893;59.754;10.110;2023-07-09T00:14:55;102329.20;;;17.40
65290;BMP180;51893;59.754;10.110;2023-07-09T00:17:32;102319.80;;;17.22
65290;BMP180;51893;59.754;10.110;2023-07-09T00:20:10;102323.80;;;17.10
65290;BMP180;51893;59.754;10.110;2023-07-09T00:22:41;102324.00;;;17.00
65290;BMP180;51893;59.754;10.110;2023-07-09T00:25:15;102328.60;;;16.98
65290;BMP180;51893;59.754;10.110;2023-07-09T00:27:45;102326.00;;;17.00
65290;BMP180;51893;59.754;10.110;2023-07-09T00:30:20;102328.40;;;17.00
65290;BMP180;51893;59.754;10.110;2023-07-09T00:32:52;102327.00;;;16.96
65290;BMP180;51893;59.754;10.110;2023-07-09T00:35:23;102331.00;;;16.94
65290;BMP180;51893;59.754;10.110;2023-07-09T00:37:51;102330.60;;;17.00
65290;BMP180;51893;59.754;10.110;2023-07-09T00:40:22;102334.40;;;17.00
65290;BMP180;51893;59.754;10.110;2023-07-09T00:42:54;102330.80;;;17.00
65290;BMP180;51893;59.754;10.110;2023-07-09T00:45:26;102324.60;;;17.00
65290;BMP180;51893;59.754;10.110;2023-07-09T00:48:04;102324.60;;;17.00
65290;BMP180;51893;59.754;10.110;2023-07-09T00:50:44;102324.60;;;17.00
65290;BMP180;51893;59.754;10.110;2023-07-09T00:53:29;102328.40;;;17.00
65290;BMP180;51893;59.754;10.110;2023-07-09T00:56:06;102328.60;;;17.00
65290;BMP180;51893;59.754;10.110;2023-07-09T00:58:39;102332.40;;;16.90
65290;BMP180;51893;59.754;10.110;2023-07-09T01:01:11;102331.40;;;16.90
65290;BMP180;51893;59.754;10.110;2023-07-09T01:03:53;102333.40;;;16.80
65290;BMP180;51893;59.754;10.110;2023-07-09T01:06:37;102329.00;;;16.70
65290;BMP180;51893;59.754;10.110;2023-07-09T01:09:07;102331.40;;;16.80
65290;BMP180;51893;59.754;10.110;2023-07-09T01:11:35;102326.60;;;16.80
65290;BMP180;51893;59.754;10.110;2023-07-09T01:14:09;102321.60;;;16.80
65290;BMP180;51893;59.754;10.110;2023-07-09T01:16:45;102321.60;;;16.80
65290;BMP180;51893;59.754;10.110;2023-07-09T01:19:14;102320.00;;;16.72
65290;BMP180;51893;59.754;10.110;2023-07-09T01:21:44;102325.40;;;16.80
65290;BMP180;51893;59.754;10.110;2023-07-09T01:25:04;102321.60;;;16.82
65290;BMP180;51893;59.754;10.110;2023-07-09T01:27:45;102323.20;;;16.90
65290;BMP180;51893;59.754;10.110;2023-07-09T01:30:21;102326.60;;;16.90
65290;BMP180;51893;59.754;10.110;2023-07-09T01:32:51;102328.80;;;16.80
65290;BMP180;51893;59.754;10.110;2023-07-09T01:35:25;102325.40;;;16.80
65290;BMP180;51893;59.754;10.110;2023-07-09T01:37:54;102327.80;;;16.76
65290;BMP180;51893;59.754;10.110;2023-07-09T01:40:24;102324.40;;;16.70
65290;BMP180;51893;59.754;10.110;2023-07-09T01:43:02;102325.40;;;16.70
65290;BMP180;51893;59.754;10.110;2023-07-09T01:45:36;102323.00;;;16.70
65290;BMP180;51893;59.754;10.110;2023-07-09T01:48:05;102320.00;;;16.70
65290;BMP180;51893;59.754;10.110;2023-07-09T01:50:34;102321.80;;;16.60
65290;BMP180;51893;59.754;10.110;2023-07-09T01:53:02;102322.80;;;16.70
65290;BMP180;51893;59.754;10.110;2023-07-09T01:55:31;102320.20;;;16.70
65290;BMP180;51893;59.754;10.110;2023-07-09T01:57:59;102321.80;;;16.70
65290;BMP180;51893;59.754;10.110;2023-07-09T02:00:27;102316.40;;;16.64
65290;BMP180;51893;59.754;10.110;2023-07-09T02:02:55;102309.80;;;16.60
65290;BMP180;51893;59.754;10.110;2023-07-09T02:05:26;102310.60;;;16.52
65290;BMP180;51893;59.754;10.110;2023-07-09T02:07:54;102303.40;;;16.50
65290;BMP180;51893;59.754;10.110;2023-07-09T02:10:23;102301.60;;;16.50
65290;BMP180;51893;59.754;10.110;2023-07-09T02:12:51;102297.80;;;16.50
65290;BMP180;51893;59.754;10.110;2023-07-09T02:15:20;102304.80;;;16.50
65290;BMP180;51893;59.754;10.110;2023-07-09T02:17:48;102305.60;;;16.50
65290;BMP180;51893;59.754;10.110;2023-07-09T02:20:17;102306.00;;;16.52
65290;BMP180;51893;59.754;10.110;2023-07-09T02:22:49;102306.00;;;16.50
65290;BMP180;51893;59.754;10.110;2023-07-09T02:25:18;102306.40;;;16.50
65290;BMP180;51893;59.754;10.110;2023-07-09T02:27:46;102304.60;;;16.40
65290;BMP180;51893;59.754;10.110;2023-07-09T02:30:14;102308.80;;;16.38
65290;BMP180;51893;59.754;10.110;2023-07-09T02:32:42;102305.40;;;16.30
65290;BMP180;51893;59.754;10.110;2023-07-09T02:35:10;102305.00;;;16.20
65290;BMP180;51893;59.754;10.110;2023-07-09T02:37:39;102303.60;;;16.20
65290;BMP180;51893;59.754;10.110;2023-07-09T02:40:09;102306.80;;;16.20
65290;BMP180;51893;59.754;10.110;2023-07-09T02:42:37;102302.40;;;16.20
65290;BMP180;51893;59.754;10.110;2023-07-09T02:45:06;102301.80;;;16.14
65290;BMP180;51893;59.754;10.110;2023-07-09T02:47:35;102301.80;;;16.10
65290;BMP180;51893;59.754;10.110;2023-07-09T02:50:04;102304.00;;;16.10
65290;BMP180;51893;59.754;10.110;2023-07-09T02:52:32;102303.20;;;16.10
65290;BMP180;51893;59.754;10.110;2023-07-09T02:55:00;102306.80;;;16.10
65290;BMP180;51893;59.754;10.110;2023-07-09T02:57:28;102304.40;;;16.10
65290;BMP180;51893;59.754;10.110;2023-07-09T02:59:56;102310.20;;;16.20
65290;BMP180;51893;59.754;10.110;2023-07-09T03:02:24;102307.40;;;16.20
65290;BMP180;51893;59.754;10.110;2023-07-09T03:04:53;102309.40;;;16.20
65290;BMP180;51893;59.754;10.110;2023-07-09T03:07:21;102304.80;;;16.22
65290;BMP180;51893;59.754;10.110;2023-07-09T03:09:50;102304.60;;;16.22
65290;BMP180;51893;59.754;10.110;2023-07-09T03:12:20;102308.40;;;16.20
65290;BMP180;51893;59.754;10.110;2023-07-09T03:14:49;102309.00;;;16.20
65290;BMP180;51893;59.754;10.110;2023-07-09T03:17:17;102308.20;;;16.22
65290;BMP180;51893;59.754;10.110;2023-07-09T03:19:45;102305.40;;;16.20
65290;BMP180;51893;59.754;10.110;2023-07-09T03:22:13;102302.60;;;16.20
65290;BMP180;51893;59.754;10.110;2023-07-09T03:24:42;102300.80;;;16.20
65290;BMP180;51893;59.754;10.110;2023-07-09T03:27:10;102296.80;;;16.20
65290;BMP180;51893;59.754;10.110;2023-07-09T03:29:38;102296.40;;;16.20
65290;BMP180;51893;59.754;10.110;2023-07-09T03:32:06;102295.00;;;16.20
65290;BMP180;51893;59.754;10.110;2023-07-09T03:34:34;102294.80;;;16.20
65290;BMP180;51893;59.754;10.110;2023-07-09T03:37:03;102297.80;;;16.20
65290;BMP180;51893;59.754;10.110;2023-07-09T03:39:32;102303.00;;;16.20
65290;BMP180;51893;59.754;10.110;2023-07-09T03:42:00;102301.40;;;16.20
65290;BMP180;51893;59.754;10.110;2023-07-09T03:44:28;102304.20;;;16.20
65290;BMP180;51893;59.754;10.110;2023-07-09T03:46:57;102306.00;;;16.20
65290;BMP180;51893;59.754;10.110;2023-07-09T03:49:25;102306.00;;;16.24
65290;BMP180;51893;59.754;10.110;2023-07-09T03:51:53;102310.20;;;16.30
65290;BMP180;51893;59.754;10.110;2023-07-09T03:54:24;102312.20;;;16.30
65290;BMP180;51893;59.754;10.110;2023-07-09T03:56:54;102308.40;;;16.40
65290;BMP180;51893;59.754;10.110;2023-07-09T03:59:22;102314.40;;;16.50
65290;BMP180;51893;59.754;10.110;2023-07-09T04:01:50;102320.00;;;16.44
65290;BMP180;51893;59.754;10.110;2023-07-09T04:04:19;102324.20;;;16.40
65290;BMP180;51893;59.754;10.110;2023-07-09T04:06:48;102323.60;;;16.44
65290;BMP180;51893;59.754;10.110;2023-07-09T04:09:16;102327.80;;;16.50
65290;BMP180;51893;59.754;10.110;2023-07-09T04:11:44;102336.20;;;16.50
65290;BMP180;51893;59.754;10.110;2023-07-09T04:14:13;102335.00;;;16.58
65290;BMP180;51893;59.754;10.110;2023-07-09T04:16:41;102335.20;;;16.60
65290;BMP180;51893;59.754;10.110;2023-07-09T04:19:09;102336.40;;;16.54
65290;BMP180;51893;59.754;10.110;2023-07-09T04:21:37;102340.00;;;16.60
65290;BMP180;51893;59.754;10.110;2023-07-09T04:24:06;102343.80;;;16.60
65290;BMP180;51893;59.754;10.110;2023-07-09T04:26:34;102340.80;;;16.60
65290;BMP180;51893;59.754;10.110;2023-07-09T04:29:03;102339.60;;;16.60
65290;BMP180;51893;59.754;10.110;2023-07-09T04:31:32;102341.00;;;16.60
65290;BMP180;51893;59.754;10.110;2023-07-09T04:34:00;102338.40;;;16.60
65290;BMP180;51893;59.754;10.110;2023-07-09T04:36:28;102338.00;;;16.60
65290;BMP180;51893;59.754;10.110;2023-07-09T04:38:56;102340.20;;;16.60
65290;BMP180;51893;59.754;10.110;2023-07-09T04:41:25;102339.80;;;16.70
65290;BMP180;51893;59.754;10.110;2023-07-09T04:43:54;102337.20;;;16.70
65290;BMP180;51893;59.754;10.110;2023-07-09T04:46:21;102340.40;;;16.72
65290;BMP180;51893;59.754;10.110;2023-07-09T04:48:50;102340.40;;;16.80
65290;BMP180;51893;59.754;10.110;2023-07-09T04:51:18;102343.00;;;16.84
65290;BMP180;51893;59.754;10.110;2023-07-09T04:53:47;102341.80;;;16.90
65290;BMP180;51893;59.754;10.110;2023-07-09T04:56:15;102342.00;;;17.00
65290;BMP180;51893;59.754;10.110;2023-07-09T04:58:43;102340.00;;;17.00
65290;BMP180;51893;59.754;10.110;2023-07-09T05:01:11;102342.20;;;17.10
65290;BMP180;51893;59.754;10.110;2023-07-09T05:03:39;102342.40;;;17.10
65290;BMP180;51893;59.754;10.110;2023-07-09T05:06:08;102339.60;;;17.20
65290;BMP180;51893;59.754;10.110;2023-07-09T05:08:36;102342.60;;;17.30
65290;BMP180;51893;59.754;10.110;2023-07-09T05:11:04;102347.40;;;17.34
65290;BMP180;51893;59.754;10.110;2023-07-09T05:13:33;102347.40;;;17.40
65290;BMP180;51893;59.754;10.110;2023-07-09T05:16:02;102345.00;;;17.50
65290;BMP180;51893;59.754;10.110;2023-07-09T05:18:31;102349.00;;;17.60
65290;BMP180;51893;59.754;10.110;2023-07-09T05:20:59;102346.40;;;17.60
65290;BMP180;51893;59.754;10.110;2023-07-09T05:23:27;102346.60;;;17.70
65290;BMP180;51893;59.754;10.110;2023-07-09T05:25:57;102348.80;;;17.72
65290;BMP180;51893;59.754;10.110;2023-07-09T05:28:28;102353.60;;;17.80
65290;BMP180;51893;59.754;10.110;2023-07-09T05:30:57;102351.80;;;17.90
65290;BMP180;51893;59.754;10.110;2023-07-09T05:33:25;102355.00;;;17.98
65290;BMP180;51893;59.754;10.110;2023-07-09T05:35:53;102351.20;;;18.04
65290;BMP180;51893;59.754;10.110;2023-07-09T05:38:21;102349.40;;;18.10
65290;BMP180;51893;59.754;10.110;2023-07-09T05:41:00;102349.60;;;18.20
65290;BMP180;51893;59.754;10.110;2023-07-09T05:43:30;102348.80;;;18.30
65290;BMP180;51893;59.754;10.110;2023-07-09T05:46:01;102346.00;;;18.30
65290;BMP180;51893;59.754;10.110;2023-07-09T05:48:31;102348.40;;;18.40
65290;BMP180;51893;59.754;10.110;2023-07-09T05:51:01;102349.00;;;18.40
65290;BMP180;51893;59.754;10.110;2023-07-09T05:53:29;102351.00;;;18.50
65290;BMP180;51893;59.754;10.110;2023-07-09T05:55:57;102349.80;;;18.60
65290;BMP180;51893;59.754;10.110;2023-07-09T05:58:26;102351.60;;;18.70
65290;BMP180;51893;59.754;10.110;2023-07-09T06:00:54;102351.00;;;18.80
65290;BMP180;51893;59.754;10.110;2023-07-09T06:03:26;102348.80;;;18.82
65290;BMP180;51893;59.754;10.110;2023-07-09T06:05:56;102347.20;;;18.90
65290;BMP180;51893;59.754;10.110;2023-07-09T06:08:25;102350.00;;;18.90
65290;BMP180;51893;59.754;10.110;2023-07-09T06:11:01;102346.40;;;19.00
65290;BMP180;51893;59.754;10.110;2023-07-09T06:13:31;102344.80;;;19.00
65290;BMP180;51893;59.754;10.110;2023-07-09T06:16:00;102343.40;;;19.08
65290;BMP180;51893;59.754;10.110;2023-07-09T06:18:30;102344.40;;;19.14
65290;BMP180;51893;59.754;10.110;2023-07-09T06:21:01;102340.40;;;19.20
65290;BMP180;51893;59.754;10.110;2023-07-09T06:23:32;102342.80;;;19.20
65290;BMP180;51893;59.754;10.110;2023-07-09T06:26:00;102343.00;;;19.30
65290;BMP180;51893;59.754;10.110;2023-07-09T06:28:30;102343.40;;;19.40
65290;BMP180;51893;59.754;10.110;2023-07-09T06:30:59;102345.60;;;19.44
65290;BMP180;51893;59.754;10.110;2023-07-09T06:33:27;102348.20;;;19.52
65290;BMP180;51893;59.754;10.110;2023-07-09T06:36:00;102347.60;;;19.60
65290;BMP180;51893;59.754;10.110;2023-07-09T06:38:29;102350.00;;;19.70
65290;BMP180;51893;59.754;10.110;2023-07-09T06:40:58;102351.00;;;19.70
65290;BMP180;51893;59.754;10.110;2023-07-09T06:43:26;102350.60;;;19.80
65290;BMP180;51893;59.754;10.110;2023-07-09T06:45:59;102354.20;;;19.90
65290;BMP180;51893;59.754;10.110;2023-07-09T06:48:29;102354.80;;;19.94
65290;BMP180;51893;59.754;10.110;2023-07-09T06:50:59;102351.20;;;20.00
65290;BMP180;51893;59.754;10.110;2023-07-09T06:53:29;102352.20;;;20.10
65290;BMP180;51893;59.754;10.110;2023-07-09T06:55:58;102351.00;;;20.14
65290;BMP180;51893;59.754;10.110;2023-07-09T06:58:32;102351.60;;;20.20
65290;BMP180;51893;59.754;10.110;2023-07-09T07:01:04;102349.20;;;20.20
65290;BMP180;51893;59.754;10.110;2023-07-09T07:03:33;102350.60;;;20.20
65290;BMP180;51893;59.754;10.110;2023-07-09T07:06:03;102354.40;;;20.18
65290;BMP180;51893;59.754;10.110;2023-07-09T07:08:34;102354.20;;;20.20
65290;BMP180;51893;59.754;10.110;2023-07-09T07:11:04;102359.00;;;20.30
65290;BMP180;51893;59.754;10.110;2023-07-09T07:13:36;102360.00;;;20.30
65290;BMP180;51893;59.754;10.110;2023-07-09T07:16:09;102360.80;;;20.42
65290;BMP180;51893;59.754;10.110;2023-07-09T07:18:38;102360.00;;;20.60
65290;BMP180;51893;59.754;10.110;2023-07-09T07:21:09;102364.20;;;20.60
65290;BMP180;51893;59.754;10.110;2023-07-09T07:23:37;102362.00;;;20.70
65290;BMP180;51893;59.754;10.110;2023-07-09T07:26:05;102363.20;;;20.70
65290;BMP180;51893;59.754;10.110;2023-07-09T07:28:35;102365.40;;;20.80
65290;BMP180;51893;59.754;10.110;2023-07-09T07:31:08;102367.00;;;20.90
65290;BMP180;51893;59.754;10.110;2023-07-09T07:33:40;102369.00;;;21.00
65290;BMP180;51893;59.754;10.110;2023-07-09T07:36:12;102369.20;;;21.10
65290;BMP180;51893;59.754;10.110;2023-07-09T07:38:57;102373.20;;;21.20
65290;BMP180;51893;59.754;10.110;2023-07-09T07:41:25;102378.60;;;21.30
65290;BMP180;51893;59.754;10.110;2023-07-09T07:43:53;102379.20;;;21.34
65290;BMP180;51893;59.754;10.110;2023-07-09T07:46:22;102384.40;;;21.40
65290;BMP180;51893;59.754;10.110;2023-07-09T07:48:50;102385.80;;;21.50
65290;BMP180;51893;59.754;10.110;2023-07-09T07:51:18;102382.60;;;21.60
65290;BMP180;51893;59.754;10.110;2023-07-09T07:53:50;102376.00;;;21.70
65290;BMP180;51893;59.754;10.110;2023-07-09T07:56:18;102373.00;;;21.80
65290;BMP180;51893;59.754;10.110;2023-07-09T07:58:46;102367.60;;;21.90
65290;BMP180;51893;59.754;10.110;2023-07-09T08:01:14;102368.20;;;22.00
65290;BMP180;51893;59.754;10.110;2023-07-09T08:03:42;102375.20;;;22.10
65290;BMP180;51893;59.754;10.110;2023-07-09T08:06:11;102370.00;;;22.20
65290;BMP180;51893;59.754;10.110;2023-07-09T08:08:39;102372.80;;;22.30
65290;BMP180;51893;59.754;10.110;2023-07-09T08:11:09;102372.20;;;22.38
65290;BMP180;51893;59.754;10.110;2023-07-09T08:13:38;102375.40;;;22.40
65290;BMP180;51893;59.754;10.110;2023-07-09T08:16:08;102374.00;;;22.50
65290;BMP180;51893;59.754;10.110;2023-07-09T08:18:36;102376.00;;;22.66
65290;BMP180;51893;59.754;10.110;2023-07-09T08:21:05;102378.20;;;22.80
65290;BMP180;51893;59.754;10.110;2023-07-09T08:23:33;102377.00;;;22.90
65290;BMP180;51893;59.754;10.110;2023-07-09T08:26:03;102372.00;;;22.92
65290;BMP180;51893;59.754;10.110;2023-07-09T08:28:34;102369.40;;;23.10
65290;BMP180;51893;59.754;10.110;2023-07-09T08:31:03;102374.40;;;23.20
65290;BMP180;51893;59.754;10.110;2023-07-09T08:33:32;102375.40;;;23.30
65290;BMP180;51893;59.754;10.110;2023-07-09T08:36:02;102373.60;;;23.40
65290;BMP180;51893;59.754;10.110;2023-07-09T08:38:30;102378.00;;;23.50
65290;BMP180;51893;59.754;10.110;2023-07-09T08:46:54;102392.00;;;23.90
65290;BMP180;51893;59.754;10.110;2023-07-09T08:50:01;102396.60;;;24.00
65290;BMP180;51893;59.754;10.110;2023-07-09T08:52:37;102403.00;;;24.10
65290;BMP180;51893;59.754;10.110;2023-07-09T08:55:24;102408.60;;;24.20
65290;BMP180;51893;59.754;10.110;2023-07-09T08:58:17;102418.80;;;24.20
65290;BMP180;51893;59.754;10.110;2023-07-09T09:00:55;102422.00;;;24.30
65290;BMP180;51893;59.754;10.110;2023-07-09T09:03:58;102418.40;;;24.40
65290;BMP180;51893;59.754;10.110;2023-07-09T09:06:30;102416.80;;;24.56
65290;BMP180;51893;59.754;10.110;2023-07-09T09:14:34;102416.80;;;24.90
65290;BMP180;51893;59.754;10.110;2023-07-09T09:17:19;102416.60;;;25.00
65290;BMP180;51893;59.754;10.110;2023-07-09T09:20:04;102419.80;;;25.10
65290;BMP180;51893;59.754;10.110;2023-07-09T09:22:42;102417.40;;;25.12
65290;BMP180;51893;59.754;10.110;2023-07-09T09:27:43;102421.00;;;25.40
65290;BMP180;51893;59.754;10.110;2023-07-09T09:30:18;102421.60;;;25.50
65290;BMP180;51893;59.754;10.110;2023-07-09T09:33:11;102427.40;;;25.68
65290;BMP180;51893;59.754;10.110;2023-07-09T09:35:44;102429.80;;;25.80
65290;BMP180;51893;59.754;10.110;2023-07-09T09:38:21;102426.60;;;25.90
65290;BMP180;51893;59.754;10.110;2023-07-09T09:40:49;102429.80;;;26.06
65290;BMP180;51893;59.754;10.110;2023-07-09T09:43:20;102429.20;;;26.10
65290;BMP180;51893;59.754;10.110;2023-07-09T09:45:51;102428.20;;;26.22
65290;BMP180;51893;59.754;10.110;2023-07-09T09:48:31;102427.60;;;26.30
65290;BMP180;51893;59.754;10.110;2023-07-09T09:51:04;102426.00;;;26.30
65290;BMP180;51893;59.754;10.110;2023-07-09T09:53:40;102422.40;;;26.40
65290;BMP180;51893;59.754;10.110;2023-07-09T09:56:19;102417.20;;;26.50
65290;BMP180;51893;59.754;10.110;2023-07-09T09:58:53;102420.60;;;26.52
65290;BMP180;51893;59.754;10.110;2023-07-09T10:01:28;102418.00;;;26.64
65290;BMP180;51893;59.754;10.110;2023-07-09T10:04:00;102421.60;;;26.70
65290;BMP180;51893;59.754;10.110;2023-07-09T10:06:46;102415.80;;;26.80
65290;BMP180;51893;59.754;10.110;2023-07-09T10:09:46;102412.20;;;26.80
65290;BMP180;51893;59.754;10.110;2023-07-09T10:12:52;102415.20;;;26.90
65290;BMP180;51893;59.754;10.110;2023-07-09T10:15:43;102411.40;;;27.00
65290;BMP180;51893;59.754;10.110;2023-07-09T10:21:05;102405.40;;;27.20
65290;BMP180;51893;59.754;10.110;2023-07-09T10:26:46;102401.60;;;27.40
65290;BMP180;51893;59.754;10.110;2023-07-09T10:35:04;102407.20;;;27.80
65290;BMP180;51893;59.754;10.110;2023-07-09T10:40:47;102404.00;;;28.00
65290;BMP180;51893;59.754;10.110;2023-07-09T10:43:22;102400.40;;;28.10
65290;BMP180;51893;59.754;10.110;2023-07-09T10:45:58;102401.00;;;28.20
65290;BMP180;51893;59.754;10.110;2023-07-09T10:48:48;102402.60;;;28.30
65290;BMP180;51893;59.754;10.110;2023-07-09T10:51:30;102399.40;;;28.40
65290;BMP180;51893;59.754;10.110;2023-07-09T10:59:41;102386.60;;;28.60
65290;BMP180;51893;59.754;10.110;2023-07-09T11:02:21;102391.80;;;28.70
65290;BMP180;51893;59.754;10.110;2023-07-09T11:04:58;102395.80;;;28.80
65290;BMP180;51893;59.754;10.110;2023-07-09T11:13:04;102386.20;;;28.92
65290;BMP180;51893;59.754;10.110;2023-07-09T11:15:38;102387.20;;;29.08
65290;BMP180;51893;59.754;10.110;2023-07-09T11:18:16;102385.60;;;29.18
65290;BMP180;51893;59.754;10.110;2023-07-09T11:21:04;102384.60;;;29.20
65290;BMP180;51893;59.754;10.110;2023-07-09T11:23:45;102378.60;;;29.24
65290;BMP180;51893;59.754;10.110;2023-07-09T11:26:30;102382.60;;;29.30
65290;BMP180;51893;59.754;10.110;2023-07-09T11:31:45;102374.60;;;29.50
65290;BMP180;51893;59.754;10.110;2023-07-09T11:34:18;102372.00;;;29.54
65290;BMP180;51893;59.754;10.110;2023-07-09T11:36:58;102369.20;;;29.70
65290;BMP180;51893;59.754;10.110;2023-07-09T11:39:41;102369.80;;;29.68
65290;BMP180;51893;59.754;10.110;2023-07-09T11:42:34;102367.20;;;29.70
65290;BMP180;51893;59.754;10.110;2023-07-09T11:45:08;102371.00;;;29.74
65290;BMP180;51893;59.754;10.110;2023-07-09T11:47:46;102364.40;;;29.80
65290;BMP180;51893;59.754;10.110;2023-07-09T11:50:32;102356.20;;;29.90
65290;BMP180;51893;59.754;10.110;2023-07-09T11:56:01;102351.60;;;30.10
65290;BMP180;51893;59.754;10.110;2023-07-09T11:58:30;102344.60;;;30.26
65290;BMP180;51893;59.754;10.110;2023-07-09T12:01:00;102337.40;;;30.40
65290;BMP180;51893;59.754;10.110;2023-07-09T12:03:42;102337.60;;;30.50
65290;BMP180;51893;59.754;10.110;2023-07-09T12:06:20;102341.20;;;30.60
65290;BMP180;51893;59.754;10.110;2023-07-09T12:08:51;102338.60;;;30.60
65290;BMP180;51893;59.754;10.110;2023-07-09T12:11:33;102331.40;;;30.50
65290;BMP180;51893;59.754;10.110;2023-07-09T12:14:22;102332.80;;;30.50
65290;BMP180;51893;59.754;10.110;2023-07-09T12:16:53;102330.20;;;30.60
65290;BMP180;51893;59.754;10.110;2023-07-09T12:19:24;102328.00;;;30.60
65290;BMP180;51893;59.754;10.110;2023-07-09T12:21:58;102327.80;;;30.70
65290;BMP180;51893;59.754;10.110;2023-07-09T12:24:31;102332.40;;;30.70
65290;BMP180;51893;59.754;10.110;2023-07-09T12:27:25;102329.60;;;30.70
65290;BMP180;51893;59.754;10.110;2023-07-09T12:29:56;102326.60;;;30.80
65290;BMP180;51893;59.754;10.110;2023-07-09T12:32:25;102323.60;;;30.82
65290;BMP180;51893;59.754;10.110;2023-07-09T12:34:57;102318.60;;;30.90
65290;BMP180;51893;59.754;10.110;2023-07-09T12:37:31;102314.20;;;31.00
65290;BMP180;51893;59.754;10.110;2023-07-09T12:40:00;102316.80;;;31.00
65290;BMP180;51893;59.754;10.110;2023-07-09T12:42:35;102312.20;;;31.10
65290;BMP180;51893;59.754;10.110;2023-07-09T12:45:14;102310.20;;;31.10
65290;BMP180;51893;59.754;10.110;2023-07-09T12:47:44;102309.20;;;31.14
65290;BMP180;51893;59.754;10.110;2023-07-09T12:50:31;102318.20;;;31.20
65290;BMP180;51893;59.754;10.110;2023-07-09T12:53:14;102318.20;;;31.30
65290;BMP180;51893;59.754;10.110;2023-07-09T12:55:46;102318.80;;;31.32
65290;BMP180;51893;59.754;10.110;2023-07-09T12:58:25;102320.20;;;31.30
65290;BMP180;51893;59.754;10.110;2023-07-09T13:00:55;102311.00;;;31.40
65290;BMP180;51893;59.754;10.110;2023-07-09T13:03:30;102310.40;;;31.46
65290;BMP180;51893;59.754;10.110;2023-07-09T13:06:28;102310.40;;;31.50
65290;BMP180;51893;59.754;10.110;2023-07-09T13:08:59;102318.20;;;31.48
65290;BMP180;51893;59.754;10.110;2023-07-09T13:11:35;102314.40;;;31.40
65290;BMP180;51893;59.754;10.110;2023-07-09T13:14:17;102308.40;;;31.40
65290;BMP180;51893;59.754;10.110;2023-07-09T13:16:47;102305.60;;;31.50
65290;BMP180;51893;59.754;10.110;2023-07-09T13:19:17;102310.00;;;31.50
65290;BMP180;51893;59.754;10.110;2023-07-09T13:21:46;102311.40;;;31.18
65290;BMP180;51893;59.754;10.110;2023-07-09T13:24:24;102307.60;;;30.80
65290;BMP180;51893;59.754;10.110;2023-07-09T13:26:52;102300.40;;;30.50
65290;BMP180;51893;59.754;10.110;2023-07-09T13:29:21;102300.20;;;30.20
65290;BMP180;51893;59.754;10.110;2023-07-09T13:31:49;102293.40;;;30.00
65290;BMP180;51893;59.754;10.110;2023-07-09T13:34:25;102279.00;;;29.80
65290;BMP180;51893;59.754;10.110;2023-07-09T13:36:55;102290.80;;;29.90
65290;BMP180;51893;59.754;10.110;2023-07-09T13:39:25;102284.60;;;29.90
65290;BMP180;51893;59.754;10.110;2023-07-09T13:41:56;102283.80;;;29.70
65290;BMP180;51893;59.754;10.110;2023-07-09T13:44:29;102280.00;;;29.46
65290;BMP180;51893;59.754;10.110;2023-07-09T13:46:59;102268.40;;;29.20
65290;BMP180;51893;59.754;10.110;2023-07-09T13:49:28;102264.80;;;29.02
65290;BMP180;51893;59.754;10.110;2023-07-09T13:51:59;102255.40;;;29.20
65290;BMP180;51893;59.754;10.110;2023-07-09T13:54:32;102255.40;;;29.50
65290;BMP180;51893;59.754;10.110;2023-07-09T13:57:09;102259.20;;;29.80
65290;BMP180;51893;59.754;10.110;2023-07-09T13:59:40;102257.00;;;29.86
65290;BMP180;51893;59.754;10.110;2023-07-09T14:02:29;102256.80;;;30.00
65290;BMP180;51893;59.754;10.110;2023-07-09T14:05:04;102264.20;;;30.00
65290;BMP180;51893;59.754;10.110;2023-07-09T14:07:38;102259.80;;;29.72
65290;BMP180;51893;59.754;10.110;2023-07-09T14:10:13;102257.60;;;29.46
65290;BMP180;51893;59.754;10.110;2023-07-09T14:12:46;102245.00;;;29.20
65290;BMP180;51893;59.754;10.110;2023-07-09T14:15:19;102257.60;;;29.10
65290;BMP180;51893;59.754;10.110;2023-07-09T14:17:48;102250.80;;;28.90
65290;BMP180;51893;59.754;10.110;2023-07-09T14:20:17;102257.20;;;28.78
65290;BMP180;51893;59.754;10.110;2023-07-09T14:22:45;102250.20;;;28.68
65290;BMP180;51893;59.754;10.110;2023-07-09T14:25:21;102250.40;;;28.50
65290;BMP180;51893;59.754;10.110;2023-07-09T14:27:52;102242.80;;;28.40
65290;BMP180;51893;59.754;10.110;2023-07-09T14:30:24;102244.00;;;28.40
65290;BMP180;51893;59.754;10.110;2023-07-09T14:32:56;102233.80;;;28.30
65290;BMP180;51893;59.754;10.110;2023-07-09T14:35:26;102229.60;;;28.22
65290;BMP180;51893;59.754;10.110;2023-07-09T14:37:55;102226.20;;;28.24
65290;BMP180;51893;59.754;10.110;2023-07-09T14:40:23;102220.00;;;28.30
65290;BMP180;51893;59.754;10.110;2023-07-09T14:42:51;102217.60;;;28.40
65290;BMP180;51893;59.754;10.110;2023-07-09T14:45:25;102215.40;;;28.50
65290;BMP180;51893;59.754;10.110;2023-07-09T14:47:56;102206.60;;;28.50
65290;BMP180;51893;59.754;10.110;2023-07-09T14:50:25;102203.00;;;28.50
65290;BMP180;51893;59.754;10.110;2023-07-09T14:52:53;102199.80;;;28.50
65290;BMP180;51893;59.754;10.110;2023-07-09T14:55:23;102204.60;;;28.60
65290;BMP180;51893;59.754;10.110;2023-07-09T14:57:53;102198.60;;;28.60
65290;BMP180;51893;59.754;10.110;2023-07-09T15:00:22;102201.60;;;28.70